Time;durP1;ratioP1;P1;durP2;ratioP2;P2;SDS_P1;SDS_P2;PMS_P1;PMS_P2;Temp;Humidity;BMP_temperature;BMP_pressure;BME280_temperature;BME280_humidity;BME280_pressure;Samples;Min_cycle;Max_cycle;Signal;HPM_P1;HPM_P2
2022/06/30 00:00:16;;;;;;;1.60;0.90;;;21.60;1.00;;;;;;5137884;27;20501;-76
2022/06/30 00:02:43;;;;;;;2.07;0.90;;;21.60;1.00;;;;;;5137949;27;20487;-76
2022/06/30 00:05:10;;;;;;;1.00;0.80;;;21.50;1.00;;;;;;5139085;27;20445;-76
2022/06/30 00:07:37;;;;;;;1.00;0.80;;;21.50;1.00;;;;;;5138518;27;20451;-76
2022/06/30 00:10:05;;;;;;;1.23;1.00;;;21.50;1.00;;;;;;5140028;27;20498;-76
2022/06/30 00:12:36;;;;;;;1.10;0.80;;;21.40;1.00;;;;;;5140012;27;20528;-75
2022/06/30 00:15:03;;;;;;;1.17;0.93;;;21.50;1.00;;;;;;5140249;27;20487;-75
2022/06/30 00:17:30;;;;;;;1.97;0.87;;;21.50;1.00;;;;;;5139263;27;20507;-75
2022/06/30 00:19:57;;;;;;;1.47;0.80;;;21.50;1.00;;;;;;5139928;27;20440;-75
2022/06/30 00:22:25;;;;;;;1.30;0.90;;;21.50;1.00;;;;;;5139949;27;20521;-75
2022/06/30 00:24:52;;;;;;;1.27;1.00;;;21.50;1.00;;;;;;5130714;27;20509;-75
2022/06/30 00:27:19;;;;;;;1.30;0.97;;;21.40;1.00;;;;;;5139203;27;20516;-74
2022/06/30 00:29:47;;;;;;;2.27;1.57;;;21.40;1.00;;;;;;5139422;27;20452;-75
2022/06/30 00:32:14;;;;;;;1.60;1.50;;;21.40;1.00;;;;;;5139803;27;20463;-74
2022/06/30 00:34:41;;;;;;;1.50;0.83;;;21.40;1.00;;;;;;5139615;27;20514;-75
2022/06/30 00:37:08;;;;;;;1.33;1.00;;;21.40;1.00;;;;;;5139466;27;20504;-74
2022/06/30 00:39:35;;;;;;;1.10;0.90;;;21.30;1.00;;;;;;5139627;27;20487;-74
2022/06/30 00:42:05;;;;;;;2.13;0.80;;;21.30;1.00;;;;;;5139748;27;20983;-74
2022/06/30 00:44:32;;;;;;;0.90;0.80;;;21.30;1.00;;;;;;5138690;27;20444;-75
2022/06/30 00:47:01;;;;;;;1.10;0.90;;;21.40;1.00;;;;;;5139418;27;20914;-75
2022/06/30 00:49:29;;;;;;;2.70;0.90;;;21.40;1.00;;;;;;5138566;27;20549;-74
2022/06/30 00:51:56;;;;;;;1.20;0.90;;;21.40;1.00;;;;;;5139280;27;20467;-75
2022/06/30 00:54:25;;;;;;;1.60;1.00;;;21.50;1.00;;;;;;5139020;27;20550;-75
2022/06/30 00:56:53;;;;;;;1.70;0.90;;;21.50;1.00;;;;;;5139668;27;20510;-74
2022/06/30 00:59:22;;;;;;;1.00;0.90;;;21.60;99.90;;;;;;5139053;27;20492;-73
2022/06/30 01:01:50;;;;;;;3.87;0.80;;;21.50;1.00;;;;;;5138831;27;20459;-74
2022/06/30 01:04:19;;;;;;;1.00;0.80;;;21.50;1.00;;;;;;5139074;27;20558;-75
2022/06/30 01:06:47;;;;;;;1.40;0.90;;;21.40;1.00;;;;;;5139094;27;20483;-75
2022/06/30 01:12:41;;;;;;;1.17;0.90;;;21.30;1.00;;;;;;5138961;27;20524;-74
2022/06/30 01:14:50;;;;;;;1.03;0.90;;;21.20;1.00;;;;;;5138770;27;20426;-75
2022/06/30 01:17:17;;;;;;;1.40;0.90;;;21.10;1.00;;;;;;5139328;27;20483;-75
2022/06/30 01:19:53;;;;;;;1.20;0.90;;;21.00;1.00;;;;;;5131313;27;20460;-75
2022/06/30 01:22:22;;;;;;;1.40;1.07;;;20.90;1.00;;;;;;5130781;27;20911;-75
2022/06/30 01:24:49;;;;;;;3.63;1.00;;;20.80;1.00;;;;;;5138969;27;20448;-75
2022/06/30 01:27:16;;;;;;;1.67;0.90;;;20.70;1.00;;;;;;5138885;27;20689;-76
2022/06/30 01:29:43;;;;;;;2.23;0.80;;;20.80;1.00;;;;;;5138365;27;20494;-75
2022/06/30 01:32:11;;;;;;;1.00;0.90;;;20.70;1.00;;;;;;5138790;27;20486;-75
2022/06/30 01:34:38;;;;;;;1.37;1.00;;;20.70;1.00;;;;;;5138691;27;20487;-75
2022/06/30 01:37:06;;;;;;;1.20;0.93;;;20.70;1.00;;;;;;5139180;27;20471;-76
2022/06/30 01:39:34;;;;;;;1.00;0.80;;;20.60;1.00;;;;;;5138854;27;20711;-76
2022/06/30 01:42:01;;;;;;;1.43;0.80;;;20.60;1.00;;;;;;5138094;27;20798;-75
2022/06/30 01:44:28;;;;;;;1.30;0.90;;;20.60;1.00;;;;;;5137577;27;20466;-76
2022/06/30 01:46:55;;;;;;;1.83;0.90;;;20.60;1.00;;;;;;5137009;27;20587;-75
2022/06/30 01:49:22;;;;;;;2.00;1.03;;;20.60;1.00;;;;;;5138715;27;20899;-75
2022/06/30 01:51:49;;;;;;;2.03;1.00;;;20.60;1.00;;;;;;5137897;27;20514;-76
2022/06/30 01:54:16;;;;;;;1.83;0.90;;;20.60;1.00;;;;;;5138093;27;20550;-75
2022/06/30 01:56:45;;;;;;;1.93;0.90;;;20.60;1.00;;;;;;5138022;27;20534;-76
2022/06/30 01:59:11;;;;;;;1.30;1.00;;;20.60;1.00;;;;;;5134985;27;20475;-75
2022/06/30 02:01:39;;;;;;;4.10;1.10;;;20.50;1.00;;;;;;5132937;27;20484;-75
2022/06/30 02:06:47;;;;;;;1.53;0.90;;;20.50;1.00;;;;;;5137359;27;20435;-75
2022/06/30 02:09:14;;;;;;;1.20;0.90;;;20.50;1.00;;;;;;5134176;27;20552;-75
2022/06/30 02:11:41;;;;;;;1.60;1.10;;;20.60;1.00;;;;;;5132879;27;20463;-75
2022/06/30 02:14:09;;;;;;;1.20;0.97;;;20.60;1.00;;;;;;5136760;27;20813;-75
2022/06/30 02:16:36;;;;;;;1.10;1.00;;;20.50;1.00;;;;;;5138018;27;20467;-75
2022/06/30 02:19:03;;;;;;;1.50;1.00;;;20.50;1.00;;;;;;5137379;27;20488;-75
2022/06/30 02:21:30;;;;;;;4.00;0.87;;;20.40;1.00;;;;;;5137178;27;20463;-75
2022/06/30 02:23:57;;;;;;;2.20;0.90;;;20.40;1.00;;;;;;5137574;27;20502;-75
2022/06/30 02:26:24;;;;;;;1.67;0.87;;;20.40;1.00;;;;;;5138329;27;20473;-75
2022/06/30 02:28:51;;;;;;;1.90;1.07;;;20.40;1.00;;;;;;5137725;27;20910;-75
2022/06/30 02:31:19;;;;;;;1.30;0.83;;;20.50;1.00;;;;;;5137667;27;20915;-76
2022/06/30 02:33:46;;;;;;;1.03;0.90;;;20.50;1.00;;;;;;5137591;27;20811;-75
2022/06/30 02:36:14;;;;;;;1.73;0.90;;;20.50;1.00;;;;;;5137512;27;20526;-76
2022/06/30 02:38:41;;;;;;;1.60;0.80;;;20.50;1.00;;;;;;5137740;27;20471;-76
2022/06/30 02:41:08;;;;;;;1.53;1.00;;;20.50;1.00;;;;;;5137042;27;20503;-76
2022/06/30 02:43:35;;;;;;;1.20;1.00;;;20.60;1.00;;;;;;5137268;27;20832;-76
2022/06/30 02:46:01;;;;;;;1.10;0.90;;;20.60;1.00;;;;;;5137422;27;20494;-76
2022/06/30 02:48:30;;;;;;;1.20;1.00;;;20.60;1.00;;;;;;5136830;27;20435;-75
2022/06/30 02:50:57;;;;;;;1.50;1.00;;;20.60;1.00;;;;;;5137217;27;20463;-75
2022/06/30 02:53:24;;;;;;;1.20;0.90;;;20.60;1.00;;;;;;5137323;27;20564;-75
2022/06/30 02:55:51;;;;;;;1.57;0.90;;;20.60;1.00;;;;;;5137095;27;20889;-76
2022/06/30 02:58:18;;;;;;;1.83;0.80;;;20.60;1.00;;;;;;5136263;27;20874;-75
2022/06/30 03:00:45;;;;;;;1.30;1.13;;;20.50;1.00;;;;;;5136075;27;20512;-76
2022/06/30 03:03:12;;;;;;;1.33;0.90;;;20.40;1.00;;;;;;5135902;27;20558;-76
2022/06/30 03:05:40;;;;;;;1.13;1.00;;;20.40;1.00;;;;;;5136133;28;20520;-75
2022/06/30 03:08:07;;;;;;;1.20;1.00;;;20.40;1.00;;;;;;5135971;28;20903;-75
2022/06/30 03:10:35;;;;;;;1.20;1.00;;;20.40;1.00;;;;;;5136126;28;20460;-76
2022/06/30 03:13:01;;;;;;;2.90;0.90;;;20.40;1.00;;;;;;5136602;28;20479;-75
2022/06/30 03:15:29;;;;;;;1.60;1.30;;;20.40;1.00;;;;;;5136316;28;20790;-76
2022/06/30 03:17:56;;;;;;;3.07;1.07;;;20.40;1.00;;;;;;5118576;28;20500;-75
2022/06/30 03:20:24;;;;;;;1.10;0.90;;;20.30;1.00;;;;;;5136736;28;20444;-76
2022/06/30 03:22:52;;;;;;;1.57;1.30;;;20.40;1.00;;;;;;5136892;28;20474;-75
2022/06/30 03:25:19;;;;;;;1.20;0.80;;;20.40;1.00;;;;;;5139876;27;20744;-76
2022/06/30 03:27:46;;;;;;;1.30;0.90;;;20.30;1.00;;;;;;5140393;27;20734;-75
2022/06/30 03:30:13;;;;;;;2.40;1.07;;;20.30;1.00;;;;;;5140287;27;20458;-75
2022/06/30 03:32:40;;;;;;;2.27;1.00;;;20.30;1.00;;;;;;5140117;27;20486;-76
2022/06/30 03:35:08;;;;;;;1.30;0.93;;;20.30;1.00;;;;;;5139596;27;20933;-73
2022/06/30 03:37:35;;;;;;;1.10;1.00;;;20.30;1.00;;;;;;5141026;27;20461;-73
2022/06/30 03:40:04;;;;;;;1.33;1.23;;;20.20;1.00;;;;;;5140186;27;20804;-73
2022/06/30 03:42:31;;;;;;;1.57;1.00;;;20.20;1.00;;;;;;5139931;27;20878;-73
2022/06/30 03:44:58;;;;;;;1.40;0.80;;;20.20;1.00;;;;;;5138621;27;20518;-73
2022/06/30 03:47:25;;;;;;;1.30;1.00;;;20.20;1.00;;;;;;5139699;27;20546;-73
2022/06/30 03:49:52;;;;;;;1.30;1.10;;;20.20;1.00;;;;;;5121920;27;20443;-73
2022/06/30 03:52:19;;;;;;;2.03;0.90;;;20.30;1.00;;;;;;5140293;27;20475;-73
2022/06/30 03:54:46;;;;;;;1.27;0.90;;;20.30;1.00;;;;;;5139570;27;20550;-73
2022/06/30 03:57:14;;;;;;;2.60;1.00;;;20.30;1.00;;;;;;5139408;27;20504;-73
2022/06/30 03:59:41;;;;;;;1.30;1.00;;;20.30;1.00;;;;;;5139391;27;20917;-73
2022/06/30 04:02:08;;;;;;;1.37;1.00;;;20.40;1.00;;;;;;5139437;27;20482;-73
2022/06/30 04:04:35;;;;;;;1.70;1.10;;;20.40;1.00;;;;;;5138735;27;20585;-73
2022/06/30 04:07:06;;;;;;;1.93;1.10;;;20.40;1.00;;;;;;5139623;27;20448;-73
2022/06/30 04:09:32;;;;;;;1.73;0.97;;;20.40;1.00;;;;;;5139758;27;20487;-72
2022/06/30 04:11:59;;;;;;;5.90;1.10;;;20.40;1.00;;;;;;5138984;27;20839;-73
2022/06/30 04:14:28;;;;;;;2.50;1.00;;;20.50;1.00;;;;;;5138055;27;21055;-73
2022/06/30 04:16:55;;;;;;;1.40;1.10;;;20.50;1.00;;;;;;5138738;27;20507;-73
2022/06/30 04:19:22;;;;;;;3.67;0.90;;;20.50;1.00;;;;;;5138860;27;20447;-73
2022/06/30 04:21:48;;;;;;;1.60;0.90;;;20.50;1.00;;;;;;5139171;27;20467;-73
2022/06/30 04:24:15;;;;;;;2.60;0.90;;;20.60;1.00;;;;;;5138811;27;20968;-72
2022/06/30 04:26:42;;;;;;;1.13;0.90;;;20.70;1.00;;;;;;5139762;27;20429;-72
2022/06/30 04:29:09;;;;;;;1.20;0.90;;;20.60;1.00;;;;;;5138042;27;20891;-73
2022/06/30 04:34:22;;;;;;;1.50;1.00;;;20.50;1.00;;;;;;5138700;27;20427;-74
2022/06/30 04:36:49;;;;;;;1.23;1.10;;;20.50;1.00;;;;;;5119655;27;20444;-74
2022/06/30 04:39:16;;;;;;;1.77;1.10;;;20.40;1.00;;;;;;5138829;27;20502;-73
2022/06/30 04:41:42;;;;;;;1.30;1.00;;;20.40;1.00;;;;;;5140019;27;20483;-73
2022/06/30 04:44:09;;;;;;;1.07;0.97;;;20.50;1.00;;;;;;5138892;27;20834;-74
2022/06/30 04:46:37;;;;;;;1.33;1.13;;;20.50;1.00;;;;;;5139565;27;20246;-73
2022/06/30 04:49:04;;;;;;;1.57;1.00;;;20.60;1.00;;;;;;5138787;27;20436;-73
2022/06/30 04:51:31;;;;;;;1.60;1.23;;;20.50;1.00;;;;;;5138416;27;20444;-73
2022/06/30 04:53:58;;;;;;;1.27;1.00;;;20.50;1.00;;;;;;5138209;27;20447;-73
2022/06/30 04:56:25;;;;;;;1.43;1.20;;;20.40;1.00;;;;;;5138555;27;20539;-73
2022/06/30 04:58:52;;;;;;;1.50;1.33;;;20.40;1.00;;;;;;5138721;27;20440;-73
2022/06/30 05:01:19;;;;;;;1.30;1.20;;;20.40;1.00;;;;;;5138932;27;20524;-73
2022/06/30 05:03:47;;;;;;;1.73;1.50;;;20.30;1.00;;;;;;5138927;27;20537;-74
2022/06/30 05:06:14;;;;;;;1.53;1.20;;;20.30;1.00;;;;;;5139221;27;20951;-73
2022/06/30 05:08:41;;;;;;;2.53;1.47;;;20.30;1.00;;;;;;5139272;27;20447;-73
2022/06/30 05:11:08;;;;;;;1.50;1.20;;;20.30;1.00;;;;;;5137828;27;20483;-73
2022/06/30 05:13:35;;;;;;;1.77;1.20;;;20.40;1.00;;;;;;5138339;27;20475;-73
2022/06/30 05:16:03;;;;;;;1.47;1.20;;;20.40;1.00;;;;;;5138597;27;20495;-74
2022/06/30 05:18:31;;;;;;;1.40;1.23;;;20.40;1.00;;;;;;5137506;27;20490;-73
2022/06/30 05:20:59;;;;;;;1.87;1.67;;;20.40;1.00;;;;;;5138319;27;20864;-73
2022/06/30 05:23:26;;;;;;;1.70;1.20;;;20.40;1.00;;;;;;5136669;27;20490;-73
2022/06/30 05:28:37;;;;;;;1.40;1.20;;;20.40;1.00;;;;;;5135887;27;20427;-73
2022/06/30 05:31:04;;;;;;;1.80;1.47;;;20.50;1.00;;;;;;5136591;27;20632;-74
2022/06/30 05:33:31;;;;;;;1.30;1.20;;;20.50;1.00;;;;;;5135926;27;20518;-74
2022/06/30 05:36:00;;;;;;;1.93;1.10;;;20.50;1.00;;;;;;5136423;27;21106;-73
2022/06/30 05:38:27;;;;;;;2.17;1.30;;;20.50;1.00;;;;;;5136463;27;20448;-74
2022/06/30 05:40:54;;;;;;;2.40;1.20;;;20.60;1.00;;;;;;5135312;27;21092;-74
2022/06/30 05:43:21;;;;;;;1.60;1.20;;;20.60;1.00;;;;;;5136034;27;20502;-74
2022/06/30 05:45:50;;;;;;;2.27;1.30;;;20.70;1.00;;;;;;5135756;27;20893;-74
2022/06/30 05:48:18;;;;;;;1.80;1.20;;;20.70;1.00;;;;;;5136795;27;20458;-73
2022/06/30 05:50:45;;;;;;;1.87;1.30;;;20.80;1.00;;;;;;5136760;27;20488;-72
2022/06/30 05:53:13;;;;;;;2.37;1.17;;;20.90;1.00;;;;;;5135596;27;20482;-72
2022/06/30 05:55:40;;;;;;;1.30;1.17;;;21.00;1.00;;;;;;5136501;27;20483;-74
2022/06/30 05:58:07;;;;;;;1.83;1.40;;;21.00;1.00;;;;;;5136371;27;21004;-74
2022/06/30 06:00:34;;;;;;;3.33;1.10;;;21.00;1.00;;;;;;5136155;27;20487;-74
2022/06/30 06:03:02;;;;;;;2.80;1.40;;;21.10;1.00;;;;;;5133594;27;20483;-75
2022/06/30 06:05:29;;;;;;;2.53;1.47;;;21.20;1.00;;;;;;5115702;28;20480;-75
2022/06/30 06:07:56;;;;;;;1.23;1.10;;;21.30;1.00;;;;;;5116644;28;20892;-73
2022/06/30 06:10:24;;;;;;;3.50;2.90;;;21.40;1.00;;;;;;5115949;28;20441;-74
2022/06/30 06:12:51;;;;;;;1.70;1.47;;;21.50;1.00;;;;;;5116532;28;20472;-75
2022/06/30 06:15:18;;;;;;;1.40;1.10;;;21.60;1.00;;;;;;5117431;28;20495;-74
2022/06/30 06:17:47;;;;;;;1.97;1.77;;;21.70;1.00;;;;;;5115812;28;20481;-73
2022/06/30 06:20:15;;;;;;;1.50;1.30;;;21.80;1.00;;;;;;5114500;28;20559;-73
2022/06/30 06:22:43;;;;;;;2.73;2.53;;;21.90;1.00;;;;;;5114683;28;20483;-73
2022/06/30 06:25:11;;;;;;;1.70;1.20;;;22.00;1.00;;;;;;5115278;28;20484;-74
2022/06/30 06:27:40;;;;;;;9.30;2.83;;;22.10;1.00;;;;;;5115309;28;20539;-72
2022/06/30 06:30:10;;;;;;;3.20;1.63;;;22.20;1.00;;;;;;5114941;28;20552;-74
2022/06/30 06:32:38;;;;;;;2.40;1.63;;;22.30;1.00;;;;;;5115562;28;20533;-73
2022/06/30 06:35:07;;;;;;;5.37;1.60;;;22.40;1.00;;;;;;5115087;28;20808;-73
2022/06/30 06:37:34;;;;;;;2.57;2.30;;;22.60;1.00;;;;;;5115484;28;20756;-72
2022/06/30 06:40:01;;;;;;;1.90;1.57;;;22.70;99.90;;;;;;5114557;28;20517;-73
2022/06/30 06:42:28;;;;;;;2.63;2.13;;;22.80;99.90;;;;;;5114917;28;20843;-73
2022/06/30 06:44:58;;;;;;;5.23;2.43;;;22.80;99.90;;;;;;5114209;28;20561;-72
2022/06/30 06:47:25;;;;;;;3.33;1.90;;;22.90;99.90;;;;;;5114513;28;20452;-73
2022/06/30 06:49:52;;;;;;;2.60;2.40;;;23.00;99.90;;;;;;5114441;28;20510;-73
2022/06/30 06:52:19;;;;;;;2.30;2.10;;;23.10;99.90;;;;;;5122792;27;20499;-73
2022/06/30 06:54:46;;;;;;;6.47;1.90;;;23.20;99.90;;;;;;5135979;27;20473;-72
2022/06/30 06:57:13;;;;;;;6.90;4.18;;;23.20;33.90;;;;;;5134025;27;20449;-73
2022/06/30 06:59:40;;;;;;;10.43;2.63;;;23.30;78.00;;;;;;5135962;27;20240;-73
2022/06/30 07:02:09;;;;;;;3.10;1.90;;;23.40;99.90;;;;;;5136434;27;20458;-73
2022/06/30 07:04:36;;;;;;;3.83;2.03;;;23.40;1.00;;;;;;5135807;27;20541;-73
2022/06/30 07:07:03;;;;;;;3.07;2.20;;;23.50;1.00;;;;;;5135688;27;21061;-73
2022/06/30 07:09:30;;;;;;;2.63;1.40;;;23.60;99.90;;;;;;5134997;28;20443;-75
2022/06/30 07:11:59;;;;;;;4.53;1.50;;;23.80;1.00;;;;;;5136228;28;20959;-75
2022/06/30 07:14:26;;;;;;;1.40;1.20;;;23.80;1.00;;;;;;5118234;28;20447;-74
2022/06/30 07:16:53;;;;;;;1.53;1.40;;;23.80;1.00;;;;;;5136510;28;20444;-73
2022/06/30 07:19:21;;;;;;;1.50;1.30;;;23.80;1.00;;;;;;5134960;28;20475;-72
2022/06/30 07:21:48;;;;;;;3.30;1.20;;;23.90;95.50;;;;;;5135497;28;20548;-73
2022/06/30 07:24:15;;;;;;;2.23;1.40;;;24.00;99.90;;;;;;5134872;28;20479;-72
2022/06/30 07:26:42;;;;;;;1.83;1.20;;;24.10;1.00;;;;;;5135468;28;20444;-73
2022/06/30 07:29:09;;;;;;;1.43;1.30;;;24.00;1.00;;;;;;5135024;28;20485;-72
2022/06/30 07:31:36;;;;;;;4.00;1.33;;;24.10;55.50;;;;;;5134317;28;20796;-72
2022/06/30 07:34:03;;;;;;;5.37;1.60;;;24.30;1.00;;;;;;5134994;28;20478;-72
2022/06/30 07:36:31;;;;;;;1.30;1.20;;;24.30;1.00;;;;;;5134433;28;20436;-72
2022/06/30 07:38:58;;;;;;;1.83;1.30;;;24.40;1.00;;;;;;5134410;28;20456;-72
2022/06/30 07:41:25;;;;;;;2.60;1.20;;;24.40;99.90;;;;;;5134920;28;20806;-73
2022/06/30 07:43:53;;;;;;;9.00;8.10;;;24.50;99.90;;;;;;5135521;28;20448;-74
2022/06/30 07:46:21;;;;;;;1.63;1.50;;;24.70;99.90;;;;;;5135809;28;20916;-74
2022/06/30 07:48:49;;;;;;;2.63;1.20;;;24.80;1.00;;;;;;5135035;28;20955;-72
2022/06/30 07:51:18;;;;;;;4.83;1.40;;;25.10;1.00;;;;;;5118817;28;20495;-71
2022/06/30 07:53:47;;;;;;;1.67;1.10;;;24.90;1.00;;;;;;5106315;28;20487;-72
2022/06/30 07:56:14;;;;;;;3.50;1.40;;;25.10;1.00;;;;;;5111543;28;20539;-72
2022/06/30 07:58:41;;;;;;;7.00;3.00;;;25.20;1.00;;;;;;5112790;28;20976;-72
2022/06/30 08:01:08;;;;;;;1.60;1.47;;;25.30;1.00;;;;;;5111457;28;20900;-74
2022/06/30 08:03:35;;;;;;;1.43;1.13;;;25.40;1.00;;;;;;5115032;28;20448;-73
2022/06/30 08:06:02;;;;;;;2.20;1.37;;;25.50;99.90;;;;;;5115040;28;20480;-73
2022/06/30 08:08:29;;;;;;;1.60;1.33;;;25.50;99.90;;;;;;5116790;28;20488;-74
2022/06/30 08:10:57;;;;;;;3.10;1.90;;;25.60;99.90;;;;;;5115575;28;20487;-75
2022/06/30 08:13:24;;;;;;;1.73;1.10;;;25.70;99.90;;;;;;5118064;28;20487;-74
2022/06/30 08:15:51;;;;;;;2.70;1.67;;;25.90;99.90;;;;;;5119503;28;20456;-73
2022/06/30 08:18:18;;;;;;;1.63;1.30;;;26.00;99.90;;;;;;5117422;28;20660;-73
2022/06/30 08:20:45;;;;;;;2.80;1.40;;;26.00;99.90;;;;;;5116308;28;20555;-72
2022/06/30 08:23:12;;;;;;;2.20;1.40;;;26.00;99.90;;;;;;5116075;28;20903;-74
2022/06/30 08:25:39;;;;;;;1.20;1.10;;;26.10;99.90;;;;;;5115693;28;20502;-72
2022/06/30 08:28:08;;;;;;;1.60;1.00;;;26.10;99.90;;;;;;5116969;28;20440;-72
2022/06/30 08:30:35;;;;;;;1.40;1.20;;;26.20;99.90;;;;;;5116563;28;20448;-72
2022/06/30 08:33:03;;;;;;;1.40;1.30;;;26.40;75.10;;;;;;5117948;27;20579;-75
2022/06/30 08:35:31;;;;;;;2.30;1.47;;;26.40;42.40;;;;;;5115635;28;20484;-75
2022/06/30 08:37:58;;;;;;;1.73;1.30;;;26.50;13.00;;;;;;5118157;28;20528;-75
2022/06/30 08:43:12;;;;;;;4.30;1.30;;;26.80;1.00;;;;;;5104315;28;20443;-75
2022/06/30 08:45:39;;;;;;;1.40;1.13;;;26.70;1.00;;;;;;5117666;28;20927;-77
2022/06/30 08:48:06;;;;;;;1.60;1.20;;;26.60;1.00;;;;;;5117476;27;20689;-75
2022/06/30 08:50:34;;;;;;;1.80;1.20;;;26.70;1.00;;;;;;5117058;28;20488;-74
2022/06/30 08:53:04;;;;;;;1.80;1.23;;;26.80;1.00;;;;;;5131876;27;20970;-75
2022/06/30 08:55:33;;;;;;;2.23;2.13;;;26.90;1.00;;;;;;5136879;27;20542;-77
2022/06/30 08:58:04;;;;;;;1.30;1.00;;;27.10;1.00;;;;;;5138905;27;20934;-74
2022/06/30 09:00:36;;;;;;;1.80;1.20;;;27.10;1.00;;;;;;5124784;27;20543;-74
2022/06/30 09:03:04;;;;;;;1.77;1.10;;;27.20;1.00;;;;;;5123645;27;21602;-74
2022/06/30 09:05:31;;;;;;;2.77;1.20;;;27.40;1.00;;;;;;5122671;27;20500;-74
2022/06/30 09:07:59;;;;;;;1.00;0.90;;;27.40;1.00;;;;;;5132797;27;20475;-75
2022/06/30 09:10:26;;;;;;;3.23;1.00;;;27.60;1.00;;;;;;5122718;27;20449;-75
2022/06/30 09:13:02;;;;;;;1.30;0.90;;;27.60;1.00;;;;;;5115251;28;20538;-75
2022/06/30 09:15:29;;;;;;;1.57;1.20;;;27.60;1.00;;;;;;5113737;27;20484;-75
2022/06/30 09:17:58;;;;;;;1.30;0.97;;;27.60;1.00;;;;;;5117180;27;20534;-74
2022/06/30 09:20:34;;;;;;;2.00;0.90;;;27.70;1.00;;;;;;5117051;28;20838;-75
2022/06/30 09:23:01;;;;;;;1.07;0.97;;;27.70;1.00;;;;;;5135071;27;21189;-75
2022/06/30 09:25:31;;;;;;;1.47;0.87;;;27.60;1.00;;;;;;5137550;27;20491;-74
2022/06/30 09:27:59;;;;;;;1.17;0.83;;;27.60;1.00;;;;;;5135724;27;20477;-74
2022/06/30 09:30:26;;;;;;;1.30;0.87;;;27.70;1.00;;;;;;5133562;27;20810;-73
2022/06/30 09:32:54;;;;;;;1.73;1.10;;;27.90;1.00;;;;;;5133260;27;20443;-74
2022/06/30 09:35:24;;;;;;;1.40;1.07;;;28.00;1.00;;;;;;5118488;27;20521;-75
2022/06/30 09:38:03;;;;;;;1.10;1.00;;;28.10;1.00;;;;;;5116381;27;20453;-74
2022/06/30 09:40:32;;;;;;;2.60;1.10;;;28.00;1.00;;;;;;5123485;27;20556;-74
2022/06/30 09:43:00;;;;;;;1.33;1.00;;;27.70;1.00;;;;;;5124657;27;20444;-75
2022/06/30 09:45:39;;;;;;;7.73;6.70;;;27.70;1.00;;;;;;5135746;27;20480;-76
2022/06/30 09:48:08;;;;;;;3.87;3.10;;;27.90;1.00;;;;;;5118616;27;20723;-76
2022/06/30 09:50:37;;;;;;;1.17;0.80;;;28.00;1.00;;;;;;5129414;27;20890;-75
2022/06/30 09:53:06;;;;;;;1.30;0.73;;;28.40;1.00;;;;;;5130663;27;20786;-76
2022/06/30 09:55:45;;;;;;;2.70;0.90;;;28.60;1.00;;;;;;5118097;27;20900;-75
2022/06/30 09:58:14;;;;;;;1.30;0.90;;;28.80;1.00;;;;;;5120163;27;20483;-75
2022/06/30 10:00:46;;;;;;;1.20;0.90;;;29.00;1.00;;;;;;5114953;27;20456;-76
2022/06/30 10:03:16;;;;;;;1.10;0.83;;;29.10;1.00;;;;;;5115763;27;20468;-77
2022/06/30 10:05:45;;;;;;;1.10;0.80;;;29.20;1.00;;;;;;5102589;28;20476;-77
2022/06/30 10:08:13;;;;;;;2.17;0.90;;;29.30;1.00;;;;;;5113932;28;20441;-74
2022/06/30 10:10:42;;;;;;;0.80;0.70;;;29.30;1.00;;;;;;5112650;28;20445;-75
2022/06/30 10:13:17;;;;;;;4.30;0.97;;;29.20;1.00;;;;;;5109389;28;20424;-73
2022/06/30 10:15:53;;;;;;;0.80;0.70;;;29.10;1.00;;;;;;5113969;28;20452;-77
2022/06/30 10:18:21;;;;;;;1.00;0.80;;;29.20;1.00;;;;;;5115137;27;20625;-76
2022/06/30 10:20:58;;;;;;;1.30;0.80;;;29.60;1.00;;;;;;5127089;27;20496;-76
2022/06/30 10:23:32;;;;;;;1.30;0.87;;;29.80;1.00;;;;;;5119534;27;20448;-75
2022/06/30 10:26:02;;;;;;;1.67;0.90;;;29.80;1.00;;;;;;5115491;27;20476;-77
2022/06/30 10:28:31;;;;;;;1.43;0.90;;;30.00;1.00;;;;;;5098210;28;20514;-77
2022/06/30 10:31:03;;;;;;;1.60;1.00;;;30.20;1.00;;;;;;5115104;28;20459;-76
2022/06/30 10:33:39;;;;;;;0.80;0.80;;;30.40;1.00;;;;;;5114601;28;20449;-76
2022/06/30 10:36:13;;;;;;;1.10;0.80;;;30.70;1.00;;;;;;5115553;28;20754;-77
2022/06/30 10:38:47;;;;;;;0.80;0.80;;;30.80;1.00;;;;;;5115453;28;20477;-77
2022/06/30 10:41:18;;;;;;;2.77;0.90;;;30.90;1.00;;;;;;5115816;28;21112;-77
2022/06/30 10:44:12;;;;;;;0.90;0.80;;;30.70;1.00;;;;;;5115789;28;20456;-76
2022/06/30 10:47:04;;;;;;;3.70;1.10;;;30.60;1.00;;;;;;5115277;28;20492;-76
2022/06/30 10:49:32;;;;;;;1.10;0.90;;;31.10;1.00;;;;;;5115386;28;20786;-77
2022/06/30 10:52:20;;;;;;;1.17;1.00;;;31.20;1.00;;;;;;5114742;28;20480;-76
2022/06/30 10:54:48;;;;;;;1.03;0.90;;;31.00;1.00;;;;;;5114012;28;20445;-76
2022/06/30 10:57:16;;;;;;;1.50;0.80;;;30.90;1.00;;;;;;5115273;28;20428;-75
2022/06/30 10:59:43;;;;;;;0.97;0.87;;;31.10;1.00;;;;;;5114814;28;20436;-75
2022/06/30 11:02:26;;;;;;;2.90;1.37;;;31.00;1.00;;;;;;5115877;28;20432;-75
2022/06/30 11:05:25;;;;;;;1.00;0.90;;;31.30;1.00;;;;;;5111475;28;20759;-76
2022/06/30 11:07:53;;;;;;;2.07;1.10;;;31.50;1.00;;;;;;5115289;28;20441;-76
2022/06/30 11:10:21;;;;;;;5.07;2.60;;;31.80;1.00;;;;;;5114148;28;20483;-76
2022/06/30 11:13:01;;;;;;;5.63;4.23;;;32.00;1.00;;;;;;5115070;28;20535;-77
2022/06/30 11:15:57;;;;;;;1.20;1.00;;;32.10;1.00;;;;;;5114935;28;20459;-77
2022/06/30 11:18:25;;;;;;;1.27;0.90;;;32.20;1.00;;;;;;5115385;28;20468;-77
2022/06/30 11:20:54;;;;;;;1.57;1.00;;;32.10;1.00;;;;;;5115757;28;20440;-77
2022/06/30 11:23:23;;;;;;;1.40;0.90;;;32.20;1.00;;;;;;5116368;28;20867;-74
2022/06/30 11:28:42;;;;;;;1.43;1.00;;;32.50;1.00;;;;;;5115259;28;20761;-73
2022/06/30 11:31:40;;;;;;;1.30;1.00;;;32.60;1.00;;;;;;5115073;28;20978;-75
2022/06/30 11:34:10;;;;;;;1.37;0.90;;;32.20;1.00;;;;;;5025608;28;20485;-75
2022/06/30 11:36:39;;;;;;;15.43;14.00;;;32.10;1.00;;;;;;5079435;28;20524;-75
2022/06/30 11:39:11;;;;;;;1.70;1.20;;;31.90;1.00;;;;;;5094981;28;20481;-74
2022/06/30 11:41:59;;;;;;;1.10;0.90;;;32.30;1.00;;;;;;5102598;28;20901;-74
2022/06/30 11:44:29;;;;;;;0.80;0.77;;;32.60;1.00;;;;;;5097196;28;20457;-74
2022/06/30 11:46:58;;;;;;;1.17;0.80;;;32.70;1.00;;;;;;5097737;28;20959;-74
2022/06/30 11:49:27;;;;;;;1.50;0.90;;;32.60;1.00;;;;;;5098409;28;20554;-74
2022/06/30 11:51:55;;;;;;;1.00;0.90;;;32.30;1.00;;;;;;5098888;28;20477;-74
2022/06/30 11:54:28;;;;;;;1.93;0.90;;;32.40;1.00;;;;;;5119090;27;20502;-73
2022/06/30 11:56:57;;;;;;;1.43;0.90;;;32.60;1.00;;;;;;5117791;27;20877;-73
2022/06/30 11:59:24;;;;;;;1.20;1.10;;;32.60;1.00;;;;;;5119827;27;20966;-73
2022/06/30 12:02:08;;;;;;;0.90;0.80;;;32.80;1.00;;;;;;5116814;28;20440;-73
2022/06/30 12:04:38;;;;;;;1.13;0.97;;;32.80;1.00;;;;;;5117084;28;20969;-74
2022/06/30 12:07:06;;;;;;;1.03;0.93;;;33.00;1.00;;;;;;5117982;28;20477;-73
2022/06/30 12:09:35;;;;;;;2.13;0.80;;;33.20;1.00;;;;;;5117116;28;20918;-73
2022/06/30 12:12:04;;;;;;;1.37;0.90;;;32.70;1.00;;;;;;5116646;28;20452;-73
2022/06/30 12:14:33;;;;;;;1.20;0.90;;;32.90;1.00;;;;;;5119287;28;21012;-74
2022/06/30 12:17:00;;;;;;;1.50;0.90;;;33.40;1.00;;;;;;5117536;28;20447;-73
2022/06/30 12:19:27;;;;;;;0.80;0.80;;;33.70;1.00;;;;;;5117838;28;20552;-73
2022/06/30 12:21:55;;;;;;;1.27;0.80;;;33.70;1.00;;;;;;5117773;28;20813;-74
2022/06/30 12:24:24;;;;;;;1.87;0.90;;;33.80;1.00;;;;;;5116331;28;20958;-73
2022/06/30 12:26:53;;;;;;;1.33;1.00;;;34.10;1.00;;;;;;5105556;28;21109;-74
2022/06/30 12:29:22;;;;;;;1.53;0.80;;;34.70;1.00;;;;;;5106941;28;20472;-73
2022/06/30 12:32:02;;;;;;;1.00;0.87;;;34.90;1.00;;;;;;5097546;28;20963;-74
2022/06/30 12:34:31;;;;;;;1.00;0.90;;;35.00;1.00;;;;;;5106663;28;20764;-74
2022/06/30 12:37:00;;;;;;;1.47;0.90;;;34.90;1.00;;;;;;5117908;28;20472;-74
2022/06/30 12:39:28;;;;;;;1.87;1.20;;;34.30;1.00;;;;;;5118722;28;20888;-73
2022/06/30 12:42:04;;;;;;;1.00;0.80;;;33.30;1.00;;;;;;5117864;28;20536;-74
2022/06/30 12:44:36;;;;;;;6.80;1.27;;;32.60;1.00;;;;;;5115986;28;20479;-74
2022/06/30 12:47:06;;;;;;;2.40;1.00;;;32.30;1.00;;;;;;5116465;28;20472;-74
2022/06/30 12:49:33;;;;;;;0.80;0.80;;;32.40;1.00;;;;;;5117472;28;20452;-74
2022/06/30 12:52:00;;;;;;;1.23;0.80;;;33.00;1.00;;;;;;5124736;27;20492;-74
2022/06/30 12:54:28;;;;;;;1.30;0.90;;;33.20;1.00;;;;;;5134660;27;20506;-74
2022/06/30 12:57:05;;;;;;;1.00;0.80;;;33.40;1.00;;;;;;5125722;27;20448;-74
2022/06/30 12:59:32;;;;;;;1.40;0.70;;;33.90;1.00;;;;;;5136277;27;20448;-74
2022/06/30 13:02:01;;;;;;;1.20;0.83;;;34.20;1.00;;;;;;5137629;27;20488;-74
2022/06/30 13:04:30;;;;;;;1.20;0.80;;;33.40;1.00;;;;;;5136302;27;20993;-74
2022/06/30 13:06:59;;;;;;;1.53;0.83;;;33.50;1.00;;;;;;5137288;27;20479;-74
2022/06/30 13:09:28;;;;;;;1.10;0.90;;;33.40;1.00;;;;;;5137920;27;20511;-74
2022/06/30 13:11:56;;;;;;;1.63;1.00;;;33.30;1.00;;;;;;5136780;27;20533;-74
2022/06/30 13:14:30;;;;;;;2.07;1.20;;;33.30;1.00;;;;;;5123973;27;20484;-75
2022/06/30 13:17:00;;;;;;;1.10;0.90;;;33.00;1.00;;;;;;5117340;28;21111;-74
2022/06/30 13:19:29;;;;;;;1.00;0.90;;;33.30;1.00;;;;;;5133116;27;20872;-75